Time;durP1;ratioP1;P1;durP2;ratioP2;P2;SDS_P1;SDS_P2;PMS_P1;PMS_P2;Temp;Humidity;BMP_temperature;BMP_pressure;BME280_temperature;BME280_humidity;BME280_pressure;Samples;Min_cycle;Max_cycle;Signal;HPM_P1;HPM_P2
2023/06/22 00:01:18;;;;;;;;;;;;;;;18.39;100.00;99897.00;5011906;28;901;-54
2023/06/22 00:03:45;;;;;;;;;;;;;;;18.31;100.00;99902.84;5011766;28;846;-55
2023/06/22 00:06:12;;;;;;;;;;;;;;;18.27;100.00;99893.78;5011802;28;858;-54
2023/06/22 00:08:40;;;;;;;;;;;;;;;18.22;100.00;99893.59;5011658;28;838;-55
2023/06/22 00:11:07;;;;;;;;;;;;;;;18.19;100.00;99898.06;5011828;28;1987;-54
2023/06/22 00:13:33;;;;;;;;;;;;;;;18.19;100.00;99903.66;5011404;28;1458;-55
2023/06/22 00:15:59;;;;;;;;;;;;;;;18.16;100.00;99899.00;5011754;28;823;-54
2023/06/22 00:18:27;;;;;;;;;;;;;;;18.17;100.00;99901.31;5011625;28;811;-54
2023/06/22 00:20:57;;;;;;;;;;;;;;;18.22;100.00;99901.97;5011447;28;922;-54
2023/06/22 00:23:24;;;;;;;;;;;;;;;18.27;100.00;99909.81;5011478;28;807;-55
2023/06/22 00:25:52;;;;;;;;;;;;;;;18.34;100.00;99910.31;5011363;28;906;-55
2023/06/22 00:28:18;;;;;;;;;;;;;;;18.46;100.00;99905.16;5011374;28;871;-55
2023/06/22 00:30:45;;;;;;;;;;;;;;;18.65;100.00;99911.63;5011408;28;1918;-55
2023/06/22 00:33:12;;;;;;;;;;;;;;;18.81;100.00;99908.69;5011450;28;811;-56
2023/06/22 00:35:41;;;;;;;;;;;;;;;18.90;100.00;99908.72;5011442;28;870;-54
2023/06/22 00:38:08;;;;;;;;;;;;;;;18.91;100.00;99910.31;5013949;28;784;-55
2023/06/22 00:40:35;;;;;;;;;;;;;;;18.91;100.00;99920.72;5015231;28;823;-55
2023/06/22 00:43:02;;;;;;;;;;;;;;;18.88;100.00;99914.03;5015807;28;978;-55
2023/06/22 00:45:29;;;;;;;;;;;;;;;18.85;100.00;99911.34;5015467;28;846;-54
2023/06/22 00:47:57;;;;;;;;;;;;;;;18.84;100.00;99913.38;5015698;28;803;-55
2023/06/22 00:50:26;;;;;;;;;;;;;;;18.85;100.00;99925.34;5015323;28;1960;-55
2023/06/22 00:52:58;;;;;;;;;;;;;;;18.88;100.00;99922.44;5015028;28;861;-54
2023/06/22 00:55:28;;;;;;;;;;;;;;;18.90;100.00;99919.16;5015039;28;862;-54
2023/06/22 00:57:55;;;;;;;;;;;;;;;18.90;100.00;99922.72;5014778;28;1018;-54
2023/06/22 01:00:24;;;;;;;;;;;;;;;18.94;100.00;99925.41;5014753;28;930;-55
2023/06/22 01:02:52;;;;;;;;;;;;;;;18.95;100.00;99918.59;5014764;28;906;-55
2023/06/22 01:05:20;;;;;;;;;;;;;;;18.94;100.00;99926.19;5014775;28;862;-54
2023/06/22 01:07:47;;;;;;;;;;;;;;;18.91;100.00;99924.31;5014575;28;968;-55
2023/06/22 01:10:25;;;;;;;;;;;;;;;18.89;100.00;99923.97;5014666;28;1961;-54
2023/06/22 01:12:53;;;;;;;;;;;;;;;18.83;100.00;99917.41;5014636;28;1190;-54
2023/06/22 01:15:23;;;;;;;;;;;;;;;18.79;100.00;99916.75;5014615;28;811;-54
2023/06/22 01:17:52;;;;;;;;;;;;;;;18.73;100.00;99912.94;5014673;28;853;-55
2023/06/22 01:20:20;;;;;;;;;;;;;;;18.66;100.00;99910.41;5014487;28;913;-54
2023/06/22 01:23:07;;;;;;;;;;;;;;;18.63;100.00;99914.91;5014475;28;875;-54
2023/06/22 01:25:47;;;;;;;;;;;;;;;18.61;100.00;99905.41;5014349;28;807;-55
2023/06/22 01:28:32;;;;;;;;;;;;;;;18.56;100.00;99909.56;5014390;28;906;-55
2023/06/22 01:31:05;;;;;;;;;;;;;;;18.84;100.00;99909.78;5014301;28;1922;-54
2023/06/22 01:33:34;;;;;;;;;;;;;;;19.52;100.00;99912.78;5014375;28;854;-55
2023/06/22 01:36:01;;;;;;;;;;;;;;;19.78;100.00;99916.94;5014308;28;799;-54
2023/06/22 01:38:29;;;;;;;;;;;;;;;19.52;100.00;99921.19;4980416;28;861;-55
2023/06/22 01:40:57;;;;;;;;;;;;;;;19.20;100.00;99925.25;5014209;28;874;-54
2023/06/22 01:43:24;;;;;;;;;;;;;;;18.98;100.00;99924.03;5014097;28;939;-54
2023/06/22 01:45:52;;;;;;;;;;;;;;;18.85;100.00;99917.72;5014187;28;850;-55
2023/06/22 01:48:19;;;;;;;;;;;;;;;18.75;100.00;99918.88;5013434;28;799;-55
2023/06/22 01:50:46;;;;;;;;;;;;;;;18.73;100.00;99924.16;5013391;28;1890;-55
2023/06/22 01:53:13;;;;;;;;;;;;;;;19.05;100.00;99927.81;5013969;28;843;-55
2023/06/22 01:55:40;;;;;;;;;;;;;;;19.62;100.00;99924.81;5013814;28;862;-54
2023/06/22 01:58:07;;;;;;;;;;;;;;;19.94;100.00;99931.94;5014144;28;842;-55
2023/06/22 02:00:37;;;;;;;;;;;;;;;19.89;100.00;99927.72;5013810;28;851;-54
2023/06/22 02:03:07;;;;;;;;;;;;;;;19.51;100.00;99925.25;5013791;28;807;-54
2023/06/22 02:05:42;;;;;;;;;;;;;;;19.13;100.00;99927.06;5013830;28;866;-54
2023/06/22 02:08:09;;;;;;;;;;;;;;;18.84;100.00;99921.78;5013753;28;878;-56
2023/06/22 02:10:38;;;;;;;;;;;;;;;18.72;100.00;99933.78;5013665;28;1957;-54
2023/06/22 02:13:06;;;;;;;;;;;;;;;18.62;100.00;99929.34;5013435;28;1472;-55
2023/06/22 02:15:33;;;;;;;;;;;;;;;18.60;100.00;99917.84;5013533;28;784;-55
2023/06/22 02:18:01;;;;;;;;;;;;;;;18.66;100.00;99913.22;5013662;28;827;-54
2023/06/22 02:20:28;;;;;;;;;;;;;;;18.71;100.00;99921.81;5013401;28;981;-56
2023/06/22 02:22:54;;;;;;;;;;;;;;;18.72;100.00;99922.59;4995793;28;1170;-55
2023/06/22 02:25:21;;;;;;;;;;;;;;;18.66;100.00;99925.19;5013264;28;831;-54
2023/06/22 02:27:48;;;;;;;;;;;;;;;18.64;100.00;99938.09;5013142;28;861;-55
2023/06/22 02:30:15;;;;;;;;;;;;;;;18.60;100.00;99945.81;5013220;28;1918;-54
2023/06/22 02:32:43;;;;;;;;;;;;;;;18.55;100.00;99936.00;5013097;28;915;-55
2023/06/22 02:35:09;;;;;;;;;;;;;;;18.49;100.00;99944.19;5013188;28;994;-54
2023/06/22 02:37:41;;;;;;;;;;;;;;;18.45;100.00;99946.31;5013041;28;803;-56
2023/06/22 02:40:11;;;;;;;;;;;;;;;18.46;100.00;99961.91;5013089;28;831;-55
2023/06/22 02:42:40;;;;;;;;;;;;;;;18.47;100.00;99951.47;5012906;28;1132;-55
2023/06/22 02:45:07;;;;;;;;;;;;;;;18.47;100.00;99952.25;5013030;28;815;-55
2023/06/22 02:47:34;;;;;;;;;;;;;;;18.43;100.00;99943.19;5012896;28;860;-55
2023/06/22 02:50:01;;;;;;;;;;;;;;;18.50;100.00;99947.78;5012729;28;1977;-55
2023/06/22 02:52:28;;;;;;;;;;;;;;;18.54;100.00;99949.22;5012868;28;807;-55
2023/06/22 02:54:55;;;;;;;;;;;;;;;18.55;100.00;99947.19;5012714;28;815;-55
2023/06/22 02:57:21;;;;;;;;;;;;;;;18.54;100.00;99949.22;5012816;28;811;-55
2023/06/22 02:59:48;;;;;;;;;;;;;;;18.56;100.00;99937.53;5012352;28;857;-56
2023/06/22 03:02:15;;;;;;;;;;;;;;;18.64;100.00;99936.06;5012922;28;894;-56
2023/06/22 03:04:43;;;;;;;;;;;;;;;18.74;100.00;99945.31;5012601;28;862;-56
2023/06/22 03:07:09;;;;;;;;;;;;;;;18.70;100.00;99941.88;5012644;28;806;-55
2023/06/22 03:09:36;;;;;;;;;;;;;;;18.70;100.00;99947.47;5012544;28;874;-55
2023/06/22 03:12:03;;;;;;;;;;;;;;;18.72;100.00;99942.19;5012227;28;1885;-55
2023/06/22 03:14:30;;;;;;;;;;;;;;;19.03;100.00;99947.09;5012474;28;811;-55
2023/06/22 03:17:02;;;;;;;;;;;;;;;19.44;100.00;99945.94;5012447;28;803;-54
2023/06/22 03:19:29;;;;;;;;;;;;;;;19.98;100.00;99946.59;5012387;28;901;-54
2023/06/22 03:21:56;;;;;;;;;;;;;;;20.33;100.00;99949.94;5012996;28;768;-55
2023/06/22 03:24:23;;;;;;;;;;;;;;;20.59;100.00;99958.09;5012649;28;889;-55
2023/06/22 03:26:50;;;;;;;;;;;;;;;20.74;100.00;99963.84;5012373;28;953;-55
2023/06/22 03:29:17;;;;;;;;;;;;;;;20.85;100.00;99966.97;5012444;28;870;-55
2023/06/22 03:31:44;;;;;;;;;;;;;;;20.93;100.00;99967.41;5012947;28;1977;-54
2023/06/22 03:34:11;;;;;;;;;;;;;;;20.93;100.00;99973.03;5012914;28;883;-54
2023/06/22 03:36:38;;;;;;;;;;;;;;;20.94;100.00;99975.38;5012500;28;826;-54
2023/06/22 03:39:05;;;;;;;;;;;;;;;20.97;100.00;99979.28;5012840;28;819;-52
2023/06/22 03:41:33;;;;;;;;;;;;;;;21.06;100.00;99981.28;5012141;28;811;-51
2023/06/22 03:44:00;;;;;;;;;;;;;;;21.15;100.00;99987.69;4994899;28;882;-54
2023/06/22 03:46:26;;;;;;;;;;;;;;;21.28;100.00;99993.13;5012727;28;804;-53
2023/06/22 03:48:53;;;;;;;;;;;;;;;21.38;100.00;99994.66;5012584;28;819;-55
2023/06/22 03:51:20;;;;;;;;;;;;;;;21.50;100.00;99992.91;4994573;28;1948;-54
2023/06/22 03:53:48;;;;;;;;;;;;;;;21.62;100.00;99991.19;5011913;28;851;-54
2023/06/22 03:56:20;;;;;;;;;;;;;;;21.73;100.00;99997.06;5012006;28;803;-55
2023/06/22 03:58:47;;;;;;;;;;;;;;;21.86;100.00;99996.84;5011831;28;811;-54
2023/06/22 04:01:14;;;;;;;;;;;;;;;21.97;100.00;99994.28;5011788;28;854;-54
2023/06/22 04:03:41;;;;;;;;;;;;;;;22.11;100.00;100000.50;5011853;28;803;-54
2023/06/22 04:06:08;;;;;;;;;;;;;;;22.41;100.00;99995.78;5011778;28;905;-53
2023/06/22 04:08:35;;;;;;;;;;;;;;;22.79;100.00;100002.72;5011674;28;839;-55
2023/06/22 04:11:02;;;;;;;;;;;;;;;22.96;100.00;99995.34;5011638;28;1953;-54
2023/06/22 04:13:29;;;;;;;;;;;;;;;23.01;100.00;99996.75;5014468;28;1259;-53
2023/06/22 04:15:56;;;;;;;;;;;;;;;23.06;100.00;99998.88;5015847;28;823;-55
2023/06/22 04:18:23;;;;;;;;;;;;;;;23.13;100.00;99998.50;5015527;28;943;-55
2023/06/22 04:20:49;;;;;;;;;;;;;;;23.20;100.00;100003.75;5015722;28;831;-55
2023/06/22 04:23:17;;;;;;;;;;;;;;;23.27;100.00;100002.59;5015735;28;866;-54
2023/06/22 04:25:44;;;;;;;;;;;;;;;23.39;100.00;100000.75;5015916;28;874;-55
2023/06/22 04:28:12;;;;;;;;;;;;;;;23.47;100.00;99993.47;5015490;28;934;-53
2023/06/22 04:30:46;;;;;;;;;;;;;;;23.58;100.00;100004.91;5015312;28;1918;-54
2023/06/22 04:33:13;;;;;;;;;;;;;;;23.71;100.00;100010.25;5015461;28;843;-54
2023/06/22 04:35:43;;;;;;;;;;;;;;;23.80;100.00;100009.38;5015404;28;874;-56
2023/06/22 04:38:13;;;;;;;;;;;;;;;23.89;100.00;100006.44;5015345;28;894;-54
2023/06/22 04:40:40;;;;;;;;;;;;;;;23.93;100.00;100006.25;5015270;28;791;-54
2023/06/22 04:43:06;;;;;;;;;;;;;;;24.03;100.00;100002.03;5015244;28;870;-53
2023/06/22 04:45:33;;;;;;;;;;;;;;;24.11;100.00;100008.84;5015219;28;823;-51
2023/06/22 04:48:00;;;;;;;;;;;;;;;24.20;100.00;99999.44;5015064;28;810;-54
2023/06/22 04:50:27;;;;;;;;;;;;;;;24.33;100.00;100004.75;5015108;28;1890;-54
2023/06/22 04:52:54;;;;;;;;;;;;;;;24.49;100.00;100001.38;5014883;28;845;-50
2023/06/22 04:55:21;;;;;;;;;;;;;;;24.57;100.00;99999.69;5015072;28;799;-50
2023/06/22 04:57:51;;;;;;;;;;;;;;;24.62;100.00;100004.66;5014894;28;922;-51
2023/06/22 05:00:19;;;;;;;;;;;;;;;24.71;100.00;100000.09;5015786;28;767;-54
2023/06/22 05:02:46;;;;;;;;;;;;;;;24.78;100.00;100002.50;5014937;28;811;-50
2023/06/22 05:05:16;;;;;;;;;;;;;;;24.87;100.00;99996.69;5015050;28;799;-52
2023/06/22 05:07:43;;;;;;;;;;;;;;;24.96;100.00;100005.00;5014806;28;839;-51
2023/06/22 05:10:12;;;;;;;;;;;;;;;25.11;100.00;100001.31;5014576;28;1953;-50
2023/06/22 05:12:39;;;;;;;;;;;;;;;25.20;100.00;100006.81;5014663;28;1385;-50
2023/06/22 05:15:07;;;;;;;;;;;;;;;25.38;100.00;100008.53;5014564;28;820;-54
2023/06/22 05:17:34;;;;;;;;;;;;;;;25.64;100.00;100005.66;5014624;28;880;-52
2023/06/22 05:20:02;;;;;;;;;;;;;;;25.82;100.00;100005.28;5014601;28;898;-53
2023/06/22 05:22:29;;;;;;;;;;;;;;;25.91;99.14;100010.00;5014510;28;827;-53
2023/06/22 05:24:56;;;;;;;;;;;;;;;26.08;98.58;100012.97;5014240;28;870;-53
2023/06/22 05:27:23;;;;;;;;;;;;;;;26.27;96.42;100016.94;5014517;28;857;-50
2023/06/22 05:29:50;;;;;;;;;;;;;;;26.65;95.07;100023.31;5014525;28;846;-51
2023/06/22 05:32:17;;;;;;;;;;;;;;;26.88;92.16;100010.00;5014278;28;1973;-53
2023/06/22 05:34:43;;;;;;;;;;;;;;;26.95;91.91;100011.56;5014403;28;791;-50
2023/06/22 05:37:12;;;;;;;;;;;;;;;27.16;90.00;100011.31;5014226;28;862;-52
2023/06/22 05:39:39;;;;;;;;;;;;;;;27.33;89.48;100005.69;5014116;28;871;-55
2023/06/22 05:42:06;;;;;;;;;;;;;;;27.29;88.66;100006.75;5014232;28;807;-53
2023/06/22 05:44:33;;;;;;;;;;;;;;;27.35;88.27;100017.31;5013935;28;886;-50
2023/06/22 05:47:00;;;;;;;;;;;;;;;27.48;87.03;100004.19;5013986;28;842;-54
2023/06/22 05:49:32;;;;;;;;;;;;;;;27.72;86.84;100005.72;4996336;28;1312;-54
2023/06/22 05:52:00;;;;;;;;;;;;;;;27.79;86.72;100008.03;5013707;28;1886;-56
2023/06/22 05:54:28;;;;;;;;;;;;;;;28.13;85.40;99995.88;5014113;28;819;-53
2023/06/22 05:56:55;;;;;;;;;;;;;;;28.33;78.16;100000.44;5013780;28;823;-51
2023/06/22 05:59:21;;;;;;;;;;;;;;;28.30;76.49;100000.19;5013848;28;811;-55
2023/06/22 06:01:51;;;;;;;;;;;;;;;28.50;76.61;100001.94;5013814;28;874;-55
2023/06/22 06:04:18;;;;;;;;;;;;;;;28.50;74.53;100004.03;5013577;28;911;-56
2023/06/22 06:06:47;;;;;;;;;;;;;;;28.41;75.72;99998.63;5013702;28;827;-53
2023/06/22 06:09:14;;;;;;;;;;;;;;;28.77;73.89;100002.34;5013580;28;831;-52
2023/06/22 06:11:41;;;;;;;;;;;;;;;29.30;73.38;99999.47;5013863;28;1947;-53
2023/06/22 06:14:08;;;;;;;;;;;;;;;29.85;70.67;100002.38;5013610;28;921;-55
2023/06/22 06:16:35;;;;;;;;;;;;;;;30.18;67.24;100009.81;5013859;28;768;-52
2023/06/22 06:19:02;;;;;;;;;;;;;;;30.65;58.33;100015.22;5013812;28;815;-54
2023/06/22 06:21:29;;;;;;;;;;;;;;;30.89;52.23;100017.25;5014079;28;847;-55
2023/06/22 06:23:55;;;;;;;;;;;;;;;31.16;51.31;100019.50;5013383;28;823;-55
2023/06/22 06:26:27;;;;;;;;;;;;;;;31.70;49.66;100013.44;5013664;28;807;-56
2023/06/22 06:28:55;;;;;;;;;;;;;;;31.58;46.66;100019.88;5013411;28;954;-55
2023/06/22 06:31:23;;;;;;;;;;;;;;;31.55;45.40;100016.03;5013009;28;1910;-56
2023/06/22 06:33:48;;;;;;;;;;;;;;;31.73;45.42;100009.50;5013170;28;887;-54
2023/06/22 06:36:16;;;;;;;;;;;;;;;32.19;44.29;100011.56;5012496;28;828;-56
2023/06/22 06:38:43;;;;;;;;;;;;;;;32.06;44.03;100013.09;5013354;28;870;-56
2023/06/22 06:41:10;;;;;;;;;;;;;;;32.11;43.71;100014.28;5013120;28;854;-56
2023/06/22 06:43:37;;;;;;;;;;;;;;;32.34;44.01;100001.09;5013006;28;897;-56
2023/06/22 06:46:04;;;;;;;;;;;;;;;32.55;42.83;100004.06;5012959;28;865;-57
2023/06/22 06:48:30;;;;;;;;;;;;;;;32.39;42.52;100005.19;5013202;28;811;-56
2023/06/22 06:50:57;;;;;;;;;;;;;;;32.32;41.35;100012.31;5012775;28;1890;-56
2023/06/22 06:53:24;;;;;;;;;;;;;;;32.40;40.73;100015.28;5012833;28;844;-56
2023/06/22 06:55:51;;;;;;;;;;;;;;;32.63;40.98;100012.00;5013053;28;881;-56
2023/06/22 06:58:18;;;;;;;;;;;;;;;33.07;38.52;100026.66;5012817;28;835;-56
2023/06/22 07:00:45;;;;;;;;;;;;;;;33.28;36.99;100024.59;5012706;28;870;-55
2023/06/22 07:03:12;;;;;;;;;;;;;;;33.46;37.04;100027.84;4995079;28;1205;-56
2023/06/22 07:05:38;;;;;;;;;;;;;;;33.60;37.15;100037.16;5012704;28;826;-55
2023/06/22 07:08:05;;;;;;;;;;;;;;;34.12;36.34;100015.22;5012582;28;807;-56
2023/06/22 07:10:32;;;;;;;;;;;;;;;34.38;35.38;100037.19;5012569;28;1959;-55
2023/06/22 07:12:59;;;;;;;;;;;;;;;34.45;34.80;100039.31;5012209;28;1389;-55
2023/06/22 07:15:25;;;;;;;;;;;;;;;34.96;34.08;100029.25;5012520;28;846;-54
2023/06/22 07:17:51;;;;;;;;;;;;;;;35.70;32.73;100036.28;5012632;28;822;-55
2023/06/22 07:20:19;;;;;;;;;;;;;;;35.77;31.59;100035.56;4994964;28;1253;-53
2023/06/22 07:22:46;;;;;;;;;;;;;;;35.56;30.77;100033.59;5012339;28;823;-55
2023/06/22 07:25:16;;;;;;;;;;;;;;;34.95;30.84;100033.44;5012525;28;883;-55
2023/06/22 07:27:47;;;;;;;;;;;;;;;35.09;31.11;100031.94;5012099;28;839;-56
2023/06/22 07:30:14;;;;;;;;;;;;;;;35.14;31.30;100031.06;5012330;28;1918;-55
2023/06/22 07:32:41;;;;;;;;;;;;;;;35.51;30.72;100039.53;5012180;28;803;-54
2023/06/22 07:35:08;;;;;;;;;;;;;;;34.94;31.13;100037.66;5003895;28;879;-54
2023/06/22 07:37:35;;;;;;;;;;;;;;;35.10;31.18;100026.97;5012070;28;862;-55
2023/06/22 07:40:06;;;;;;;;;;;;;;;35.38;31.18;100034.72;5012225;28;811;-55
2023/06/22 07:42:33;;;;;;;;;;;;;;;35.73;30.56;100040.91;5011945;28;946;-55
2023/06/22 07:45:00;;;;;;;;;;;;;;;36.34;30.63;100040.88;5012034;28;842;-56
2023/06/22 07:47:28;;;;;;;;;;;;;;;36.24;30.18;100039.94;5011914;28;859;-55
2023/06/22 07:50:00;;;;;;;;;;;;;;;36.04;30.13;100038.78;5011841;28;890;-54
2023/06/22 07:52:28;;;;;;;;;;;;;;;36.60;30.22;100033.13;5011756;28;1878;-54
2023/06/22 07:54:54;;;;;;;;;;;;;;;37.13;29.10;100026.41;5011847;28;859;-54
2023/06/22 07:57:21;;;;;;;;;;;;;;;37.22;29.23;100027.13;5011908;28;815;-55
2023/06/22 07:59:47;;;;;;;;;;;;;;;36.64;28.84;100026.97;5012054;28;858;-53
2023/06/22 08:02:14;;;;;;;;;;;;;;;36.46;28.77;100026.81;5011843;28;816;-55
2023/06/22 08:04:41;;;;;;;;;;;;;;;36.44;29.42;100023.00;5011805;28;803;-55
2023/06/22 08:07:08;;;;;;;;;;;;;;;36.55;29.84;100022.56;5011728;28;809;-53
2023/06/22 08:09:35;;;;;;;;;;;;;;;36.31;29.48;100018.25;5011914;28;811;-54
2023/06/22 08:12:01;;;;;;;;;;;;;;;36.92;29.21;100028.78;5011744;28;1883;-54
2023/06/22 08:14:29;;;;;;;;;;;;;;;37.63;28.31;100016.28;5011947;28;871;-55
2023/06/22 08:16:56;;;;;;;;;;;;;;;37.05;28.86;100019.88;5011662;28;930;-55
2023/06/22 08:19:23;;;;;;;;;;;;;;;36.62;28.43;100018.16;5011549;28;834;-54
2023/06/22 08:21:50;;;;;;;;;;;;;;;36.37;29.32;100015.94;5011590;28;878;-55
2023/06/22 08:24:17;;;;;;;;;;;;;;;36.79;29.18;100021.16;5011481;28;843;-55
2023/06/22 08:26:43;;;;;;;;;;;;;;;36.94;29.04;100026.84;5011536;28;791;-53
2023/06/22 08:29:10;;;;;;;;;;;;;;;37.21;27.82;100014.81;5011563;28;846;-50
2023/06/22 08:31:37;;;;;;;;;;;;;;;37.36;28.66;100013.94;5011374;28;1965;-51
2023/06/22 08:34:04;;;;;;;;;;;;;;;37.65;27.92;100010.69;5011450;28;839;-55
2023/06/22 08:36:32;;;;;;;;;;;;;;;37.62;26.70;100011.84;5011562;28;877;-53
2023/06/22 08:39:01;;;;;;;;;;;;;;;37.13;26.95;100017.75;5011351;28;933;-55
2023/06/22 08:41:28;;;;;;;;;;;;;;;37.14;27.67;100015.63;5011463;28;873;-54
2023/06/22 08:43:55;;;;;;;;;;;;;;;36.36;28.14;100015.16;5011306;28;854;-55
2023/06/22 08:46:29;;;;;;;;;;;;;;;36.42;29.02;100017.81;5011702;28;870;-55
2023/06/22 08:48:59;;;;;;;;;;;;;;;36.50;28.68;100015.69;5011118;28;915;-55
2023/06/22 08:51:27;;;;;;;;;;;;;;;35.70;29.05;100013.31;5011284;28;1990;-53
2023/06/22 08:53:53;;;;;;;;;;;;;;;35.11;29.49;100017.03;5011346;28;831;-56
2023/06/22 08:56:20;;;;;;;;;;;;;;;35.14;29.79;100016.69;5011149;28;931;-54
2023/06/22 08:58:47;;;;;;;;;;;;;;;35.50;28.77;100015.00;5012935;28;854;-53
2023/06/22 09:01:15;;;;;;;;;;;;;;;35.12;28.53;100019.34;5015053;28;819;-53
2023/06/22 09:03:41;;;;;;;;;;;;;;;34.30;30.25;100024.91;5015065;28;938;-54
2023/06/22 09:06:11;;;;;;;;;;;;;;;34.42;30.17;100023.25;5014908;28;838;-54
2023/06/22 09:08:38;;;;;;;;;;;;;;;34.67;31.15;100020.69;5014825;28;946;-54
2023/06/22 09:11:04;;;;;;;;;;;;;;;34.04;31.44;100020.88;5014796;28;1939;-55
2023/06/22 09:13:33;;;;;;;;;;;;;;;33.79;31.81;100026.22;5014660;28;1373;-54
2023/06/22 09:15:59;;;;;;;;;;;;;;;33.92;31.30;100028.25;5014646;28;950;-55
2023/06/22 09:18:26;;;;;;;;;;;;;;;33.52;32.47;100022.72;5014429;28;992;-54
2023/06/22 09:20:53;;;;;;;;;;;;;;;33.66;32.72;100024.22;5014605;28;890;-55
2023/06/22 09:23:21;;;;;;;;;;;;;;;33.48;33.73;100025.16;5014612;28;807;-54
2023/06/22 09:25:48;;;;;;;;;;;;;;;33.65;33.02;100025.56;5014508;28;807;-54
2023/06/22 09:28:15;;;;;;;;;;;;;;;33.71;32.03;100019.66;5014496;28;847;-54
2023/06/22 09:30:44;;;;;;;;;;;;;;;34.08;32.37;100017.66;5014360;28;1950;-55
2023/06/22 09:33:11;;;;;;;;;;;;;;;34.09;32.94;100014.22;5014311;28;1141;-54
2023/06/22 09:35:38;;;;;;;;;;;;;;;33.78;33.14;100013.25;4996826;28;930;-54
2023/06/22 09:38:05;;;;;;;;;;;;;;;34.15;32.53;100014.84;5014193;28;820;-54
2023/06/22 10:11:34;;;;;;;;;;;;;;;33.60;34.93;100011.34;5761758;23;1677;-64
2023/06/22 10:14:03;;;;;;;;;;;;;;;33.67;34.32;100008.56;5013548;28;924;-63
2023/06/22 10:16:36;;;;;;;;;;;;;;;32.64;35.64;100010.66;5013591;28;1047;-63
2023/06/22 10:19:03;;;;;;;;;;;;;;;32.35;36.90;100013.31;5013514;28;873;-63
2023/06/22 10:21:29;;;;;;;;;;;;;;;32.45;37.46;100002.19;5013544;28;810;-63
2023/06/22 10:23:56;;;;;;;;;;;;;;;32.89;36.33;99999.72;5013574;28;811;-63
2023/06/22 10:26:23;;;;;;;;;;;;;;;33.13;36.14;100002.28;5013433;28;834;-64
2023/06/22 10:28:50;;;;;;;;;;;;;;;33.60;35.44;100002.75;5013438;28;819;-64
2023/06/22 10:31:16;;;;;;;;;;;;;;;34.19;35.08;99997.28;5013356;28;1980;-63
2023/06/22 10:33:44;;;;;;;;;;;;;;;34.71;34.65;99997.38;5013287;28;873;-63
2023/06/22 10:36:11;;;;;;;;;;;;;;;34.34;34.92;100002.34;5013286;28;819;-64
2023/06/22 10:38:39;;;;;;;;;;;;;;;34.38;34.16;99990.53;5013306;28;1136;-64
2023/06/22 10:41:06;;;;;;;;;;;;;;;33.68;34.98;99992.13;5012972;28;964;-64
2023/06/22 10:43:33;;;;;;;;;;;;;;;32.29;37.11;99996.25;5013433;28;822;-63
2023/06/22 10:46:00;;;;;;;;;;;;;;;32.12;37.57;99987.25;5013048;28;814;-63
2023/06/22 10:48:27;;;;;;;;;;;;;;;33.11;36.63;99979.16;5013139;28;842;-60
2023/06/22 10:50:54;;;;;;;;;;;;;;;33.63;35.06;99978.69;5012909;28;1891;-60
2023/06/22 10:53:21;;;;;;;;;;;;;;;33.13;36.25;99979.38;5013200;28;846;-60
2023/06/22 10:55:47;;;;;;;;;;;;;;;32.91;36.28;99974.94;5012777;28;831;-64
2023/06/22 10:58:14;;;;;;;;;;;;;;;33.04;37.09;99961.91;5012849;28;850;-61
2023/06/22 11:00:41;;;;;;;;;;;;;;;33.99;36.07;99964.44;4995356;28;831;-61
2023/06/22 11:03:08;;;;;;;;;;;;;;;34.69;34.82;99966.38;5012691;28;863;-61
2023/06/22 11:05:34;;;;;;;;;;;;;;;35.11;34.18;99962.47;5012802;28;834;-61
2023/06/22 11:08:01;;;;;;;;;;;;;;;36.03;33.18;99965.34;5012700;28;894;-61
2023/06/22 11:10:27;;;;;;;;;;;;;;;36.34;32.07;99966.06;5012479;28;1894;-61
2023/06/22 11:12:55;;;;;;;;;;;;;;;35.74;32.49;99973.44;5012425;28;1365;-61
2023/06/22 11:15:21;;;;;;;;;;;;;;;34.86;34.03;99979.44;5012515;28;902;-60
2023/06/22 11:17:48;;;;;;;;;;;;;;;35.30;33.25;99973.63;5012435;28;834;-60
2023/06/22 11:20:15;;;;;;;;;;;;;;;35.51;32.82;99970.56;5012315;28;832;-61
2023/06/22 11:22:41;;;;;;;;;;;;;;;35.87;32.16;99972.47;5012460;28;815;-61
2023/06/22 11:25:09;;;;;;;;;;;;;;;36.32;30.94;99965.13;5012234;28;906;-61
2023/06/22 11:27:35;;;;;;;;;;;;;;;36.58;30.17;99972.50;5012338;28;811;-61
2023/06/22 11:30:02;;;;;;;;;;;;;;;36.94;30.54;99963.50;5012327;28;783;-61
2023/06/22 11:32:29;;;;;;;;;;;;;;;37.07;29.81;99965.31;5012056;28;1910;-62
2023/06/22 11:34:56;;;;;;;;;;;;;;;37.38;29.17;99960.13;5012517;28;865;-61
2023/06/22 11:37:22;;;;;;;;;;;;;;;37.73;29.25;99973.91;5012257;28;806;-61
2023/06/22 11:39:49;;;;;;;;;;;;;;;38.23;28.02;99970.13;5011933;28;867;-61
2023/06/22 11:42:16;;;;;;;;;;;;;;;38.39;27.79;99965.72;5012066;28;815;-61
2023/06/22 11:44:43;;;;;;;;;;;;;;;38.24;28.24;99968.75;5012092;28;846;-60
2023/06/22 11:47:10;;;;;;;;;;;;;;;37.48;28.79;99968.88;5011870;28;887;-61
2023/06/22 11:49:37;;;;;;;;;;;;;;;36.91;29.52;99956.00;5011967;28;934;-61
2023/06/22 11:52:04;;;;;;;;;;;;;;;36.44;30.33;99963.31;5011926;28;1886;-60
2023/06/22 11:54:31;;;;;;;;;;;;;;;37.15;29.45;99966.06;5011931;28;890;-61
2023/06/22 11:56:57;;;;;;;;;;;;;;;37.95;28.42;99952.69;5011919;28;905;-60
2023/06/22 11:59:24;;;;;;;;;;;;;;;38.21;27.32;99962.06;5011968;28;886;-60
2023/06/22 12:01:51;;;;;;;;;;;;;;;37.88;28.00;99953.56;5011831;28;913;-61
2023/06/22 12:04:18;;;;;;;;;;;;;;;37.72;27.96;99955.06;4994209;28;688;-60
2023/06/22 12:06:45;;;;;;;;;;;;;;;38.74;27.38;99951.97;5011847;28;853;-61
2023/06/22 12:09:13;;;;;;;;;;;;;;;39.54;26.15;99955.44;5011736;28;858;-61
2023/06/22 12:11:40;;;;;;;;;;;;;;;39.97;25.53;99949.28;5011519;28;1953;-61
2023/06/22 12:14:07;;;;;;;;;;;;;;;39.56;25.78;99957.69;5011650;28;882;-62
2023/06/22 12:16:33;;;;;;;;;;;;;;;39.78;25.49;99959.44;5011736;28;901;-62
2023/06/22 12:19:00;;;;;;;;;;;;;;;39.79;25.49;99949.38;4994264;28;838;-63
2023/06/22 12:21:28;;;;;;;;;;;;;;;39.90;25.52;99945.13;5011745;28;897;-63
2023/06/22 12:23:54;;;;;;;;;;;;;;;40.33;25.53;99962.09;5011541;28;849;-65
2023/06/22 12:26:21;;;;;;;;;;;;;;;39.69;26.54;99956.50;5011654;28;972;-64
2023/06/22 12:28:48;;;;;;;;;;;;;;;37.83;29.10;99954.56;5011939;28;854;-63
2023/06/22 12:31:14;;;;;;;;;;;;;;;36.05;31.87;99967.66;5011573;28;1911;-63
2023/06/22 12:33:41;;;;;;;;;;;;;;;37.40;30.92;99957.41;5013173;28;932;-64
2023/06/22 12:36:08;;;;;;;;;;;;;;;38.72;29.19;99954.69;5007294;28;843;-64
2023/06/22 12:38:35;;;;;;;;;;;;;;;39.28;28.49;99956.22;5015603;28;850;-64
2023/06/22 12:41:02;;;;;;;;;;;;;;;39.87;27.70;99960.06;5015742;28;839;-65
2023/06/22 12:43:29;;;;;;;;;;;;;;;39.57;27.62;99957.09;5015381;28;953;-64
2023/06/22 12:45:56;;;;;;;;;;;;;;;39.10;28.26;99962.09;4997692;28;1193;-64
2023/06/22 12:48:23;;;;;;;;;;;;;;;37.28;29.82;99953.50;5015202;28;937;-64
2023/06/22 12:50:49;;;;;;;;;;;;;;;35.90;31.69;99962.69;5015156;28;1989;-63
2023/06/22 12:53:16;;;;;;;;;;;;;;;36.29;31.66;99967.03;5015316;28;803;-65
2023/06/22 12:55:43;;;;;;;;;;;;;;;35.47;32.91;99956.56;5015058;28;853;-63
2023/06/22 12:58:10;;;;;;;;;;;;;;;34.40;34.45;99950.53;5015052;28;905;-62
2023/06/22 13:00:39;;;;;;;;;;;;;;;34.05;35.41;99941.34;5015094;28;875;-63
2023/06/22 13:03:05;;;;;;;;;;;;;;;34.78;34.66;99942.09;5015066;28;871;-62
2023/06/22 13:05:34;;;;;;;;;;;;;;;34.00;35.42;99948.78;5014857;28;815;-63
2023/06/22 13:08:01;;;;;;;;;;;;;;;33.66;35.79;99948.94;5014957;28;830;-62
2023/06/22 13:10:28;;;;;;;;;;;;;;;33.37;36.53;99946.00;5014704;28;1886;-63
2023/06/22 13:13:00;;;;;;;;;;;;;;;34.58;35.33;99947.34;5014782;28;1281;-65
2023/06/22 13:15:27;;;;;;;;;;;;;;;35.41;34.31;99952.38;5014720;28;827;-63
2023/06/22 13:17:55;;;;;;;;;;;;;;;34.82;35.10;99948.22;5014883;28;879;-63
2023/06/22 13:20:22;;;;;;;;;;;;;;;33.89;35.84;99944.13;5014697;28;854;-63
2023/06/22 13:22:49;;;;;;;;;;;;;;;33.10;37.34;99949.00;5014981;28;819;-62
2023/06/22 13:25:18;;;;;;;;;;;;;;;32.79;38.39;99944.25;5014619;28;974;-63
2023/06/22 13:27:45;;;;;;;;;;;;;;;32.47;38.86;99948.81;5014643;28;815;-62
2023/06/22 13:30:12;;;;;;;;;;;;;;;32.21;39.95;99941.06;5014752;28;799;-64